»·PEaware :: N6507W KTPH-KPVF

N6507W :: KTPH-KPVF

FLIGHT INFORMATION

Flight Status: Arrived
Operator: Privately registered:
United States
More flights under this callsign
Pilot: Jukka N. (18040)
Aircraft: Unknown
(KODI)
More flights by this aircraft type
Origin: KTPH Tonopah
United States
Destination: KPVF Placerville
United States
More flights between these airports :: More routes between these airports
Route:
File this flight plan on PilotEdge
Remarks:
Altitude:
(Current/Filed)
12,500ft
Speed:
(Current/Filed)
170kts
Departed: 17-Mar-19 04:43 AM
Arrived: 17-Mar-19 05:57 AM
Distance/Time
Traveled:
177nm/1:14
Distance/Time
To Go:
Arrived

Flight Plot

Page will automatically refresh every two minutes.

Flight plan parsing failed; only flown route is shown


Map Options




Map Legend


Flown Route
Filed Route
Departure Airport
Arrival Airport
Navaid (VOR, NDB)
Fix

Horizontal Profiles

Position Reports

Time Latitude Longitude Heading Altitude Ground
Speed
17-Mar-19 04:35 38.064724 -117.095835 72 5429ft 0kts
17-Mar-19 04:35 38.064724 -117.095834 71 5429ft 0kts
17-Mar-19 04:36 38.064664 -117.095322 111 5429ft 11kts
17-Mar-19 04:37 38.060115 -117.092832 164 5429ft 29kts
17-Mar-19 04:38 38.051716 -117.089991 165 5429ft 30kts
17-Mar-19 04:39 38.048465 -117.087110 101 5429ft 0kts
17-Mar-19 04:40 38.048465 -117.087110 101 5429ft 0kts
17-Mar-19 04:41 38.048759 -117.086363 1 5429ft 12kts
17-Mar-19 04:42 38.068643 -117.092961 347 5817ft 110kts
17-Mar-19 04:43 38.095119 -117.114317 298 6763ft 123kts
17-Mar-19 04:44 38.107783 -117.155110 288 7740ft 128kts
17-Mar-19 04:45 38.117255 -117.194982 288 9177ft 112kts
17-Mar-19 04:46 38.127057 -117.230773 288 10568ft 107kts
17-Mar-19 04:47 38.137869 -117.268393 288 11694ft 118kts
17-Mar-19 04:48 38.150009 -117.308598 288 12522ft 140kts
17-Mar-19 04:49 38.163780 -117.355336 288 12506ft 130kts
17-Mar-19 04:50 38.179347 -117.408040 288 12503ft 174kts
17-Mar-19 04:51 38.196559 -117.466924 288 12500ft 178kts
17-Mar-19 04:52 38.213917 -117.526319 288 12500ft 178kts
17-Mar-19 04:53 38.231257 -117.585620 289 12500ft 179kts
17-Mar-19 04:54 38.248728 -117.645331 289 12499ft 179kts
17-Mar-19 04:55 38.266154 -117.704752 288 12499ft 178kts
17-Mar-19 04:56 38.283602 -117.763659 288 12499ft 177kts
17-Mar-19 04:57 38.301647 -117.822365 288 12499ft 177kts
17-Mar-19 04:58 38.319730 -117.881120 288 12462ft 178kts
17-Mar-19 04:59 38.337856 -117.939937 288 12463ft 177kts
17-Mar-19 05:00 38.355111 -117.998779 268 12464ft 174kts
17-Mar-19 05:01 38.352944 -118.060695 264 12463ft 174kts
17-Mar-19 05:02 38.350581 -118.122544 264 12463ft 174kts
17-Mar-19 05:03 38.348215 -118.184774 264 12463ft 175kts
17-Mar-19 05:04 38.345854 -118.247019 264 12463ft 176kts
17-Mar-19 05:05 38.343066 -118.309406 264 12464ft 178kts
17-Mar-19 05:06 38.341186 -118.348708 264 12463ft 180kts
17-Mar-19 05:07 38.338169 -118.411784 264 12463ft 177kts
17-Mar-19 05:08 38.335190 -118.474553 264 12463ft 177kts
17-Mar-19 05:09 38.332225 -118.537298 264 12481ft 176kts
17-Mar-19 05:10 38.329278 -118.599753 264 12481ft 177kts
17-Mar-19 05:11 38.326347 -118.662105 264 12481ft 177kts
17-Mar-19 05:12 38.325177 -118.724885 294 12468ft 180kts
17-Mar-19 05:13 38.352042 -118.778806 300 12481ft 179kts
17-Mar-19 05:14 38.379024 -118.832123 300 12481ft 178kts
17-Mar-19 05:15 38.406086 -118.885577 300 12481ft 178kts
17-Mar-19 05:16 38.433087 -118.938889 300 12481ft 178kts
17-Mar-19 05:17 38.460073 -118.992154 300 12481ft 178kts
17-Mar-19 05:18 38.459229 -119.050539 251 12481ft 174kts
17-Mar-19 05:19 38.448478 -119.110887 268 12499ft 175kts
17-Mar-19 05:20 38.454455 -119.172915 279 12499ft 176kts
17-Mar-19 05:21 38.464679 -119.234283 280 12499ft 176kts
17-Mar-19 05:22 38.475460 -119.295618 282 12499ft 175kts
17-Mar-19 05:23 38.486239 -119.356232 282 12499ft 175kts
17-Mar-19 05:24 38.497016 -119.417158 282 12499ft 175kts
17-Mar-19 05:25 38.507700 -119.477815 282 12499ft 175kts
17-Mar-19 05:26 38.518395 -119.538738 282 12499ft 175kts
17-Mar-19 05:27 38.529011 -119.599499 282 12499ft 175kts
17-Mar-19 05:28 38.539627 -119.660467 281 12500ft 175kts
17-Mar-19 05:29 38.550231 -119.721470 281 12500ft 175kts
17-Mar-19 05:30 38.560806 -119.782439 281 12500ft 175kts
17-Mar-19 05:31 38.571297 -119.843254 281 12500ft 175kts
17-Mar-19 05:32 38.581775 -119.904128 281 12500ft 175kts
17-Mar-19 05:33 38.585913 -119.966102 272 12500ft 174kts
17-Mar-19 05:34 38.588961 -120.028192 272 12500ft 174kts
17-Mar-19 05:35 38.591888 -120.090417 272 12500ft 174kts
17-Mar-19 05:36 38.594751 -120.152428 272 12500ft 174kts
17-Mar-19 05:37 38.597538 -120.214600 272 12500ft 174kts
17-Mar-19 05:38 38.600357 -120.276798 272 12439ft 176kts
17-Mar-19 05:39 38.603225 -120.341336 272 11778ft 183kts
17-Mar-19 05:40 38.606091 -120.406310 272 10965ft 183kts
17-Mar-19 05:41 38.608934 -120.471551 272 10151ft 184kts
17-Mar-19 05:42 38.611772 -120.537149 272 9333ft 185kts
17-Mar-19 05:43 38.614594 -120.603678 271 8505ft 187kts
17-Mar-19 05:44 38.617398 -120.670750 270 7672ft 190kts
17-Mar-19 05:45 38.620206 -120.738889 270 6844ft 192kts
17-Mar-19 05:46 38.622992 -120.807421 271 6108ft 192kts
17-Mar-19 05:47 38.625742 -120.875971 271 5420ft 193kts
17-Mar-19 05:48 38.628461 -120.944755 272 4780ft 192kts
17-Mar-19 05:49 38.657948 -120.969257 61 4385ft 176kts
17-Mar-19 05:50 38.661271 -120.911599 70 4048ft 149kts
17-Mar-19 05:51 38.678591 -120.866739 64 3933ft 132kts
17-Mar-19 05:52 38.695218 -120.825935 60 3812ft 118kts
17-Mar-19 05:53 38.707926 -120.794739 65 3258ft 79kts
17-Mar-19 05:54 38.716941 -120.771844 63 2802ft 71kts
17-Mar-19 05:55 38.724822 -120.751818 63 2589ft 44kts
17-Mar-19 05:56 38.725881 -120.750318 242 2588ft 17kts
17-Mar-19 05:57 38.723373 -120.756552 243 2588ft 21kts
17-Mar-19 05:58 38.722150 -120.759983 166 2588ft 8kts
17-Mar-19 05:59 38.722127 -120.759969 145 2588ft 0kts
17-Mar-19 06:00 38.722216 -120.760045 146 2588ft 0kts

Navigation Log

Ident Type
Flight plan parsing failed, navigation log unavailable